Time;durP1;ratioP1;P1;durP2;ratioP2;P2;SDS_P1;SDS_P2;PMS_P1;PMS_P2;Temp;Humidity;BMP_temperature;BMP_pressure;BME280_temperature;BME280_humidity;BME280_pressure;Samples;Min_cycle;Max_cycle;Signal;HPM_P1;HPM_P2
2022/07/16 00:01:24;;;;;;;1.67;1.20;;;26.10;48.00;;;;;;5076801;28;20197;-86
2022/07/16 00:03:59;;;;;;;2.13;1.50;;;26.10;48.10;;;;;;5075054;28;20413;-85
2022/07/16 00:06:27;;;;;;;2.50;1.70;;;26.10;48.00;;;;;;5075223;28;20416;-85
2022/07/16 00:08:54;;;;;;;1.73;1.63;;;26.10;48.00;;;;;;5076289;28;20482;-85
2022/07/16 00:11:22;;;;;;;2.10;1.60;;;26.10;48.00;;;;;;5076415;28;20420;-85
2022/07/16 00:13:48;;;;;;;1.50;1.20;;;26.10;48.00;;;;;;5075949;28;20417;-85
2022/07/16 00:16:15;;;;;;;1.70;1.60;;;26.10;48.00;;;;;;5093534;28;20404;-85
2022/07/16 00:21:26;;;;;;;2.00;1.57;;;26.10;48.00;;;;;;5093723;28;20415;-86
2022/07/16 00:23:53;;;;;;;2.17;1.57;;;26.10;48.00;;;;;;5075964;28;20421;-85
2022/07/16 00:26:21;;;;;;;1.20;1.10;;;26.10;48.00;;;;;;5075530;28;20477;-85
2022/07/16 00:28:47;;;;;;;1.57;1.47;;;26.10;48.00;;;;;;5093382;28;20417;-85
2022/07/16 00:31:13;;;;;;;2.07;1.30;;;26.10;48.00;;;;;;5075618;28;20933;-85
2022/07/16 00:33:39;;;;;;;1.73;1.53;;;26.10;48.00;;;;;;5075141;28;20220;-85
2022/07/16 00:36:05;;;;;;;1.70;1.47;;;26.10;48.00;;;;;;5075337;28;20999;-85
2022/07/16 00:38:32;;;;;;;1.43;1.33;;;26.10;48.00;;;;;;5093618;28;20431;-85
2022/07/16 00:40:58;;;;;;;1.50;1.40;;;26.10;48.00;;;;;;5092829;28;20416;-85
2022/07/16 00:46:47;;;;;;;1.60;1.40;;;26.10;47.90;;;;;;5093066;28;20212;-85
2022/07/16 00:49:15;;;;;;;2.30;1.70;;;26.10;48.00;;;;;;5075002;28;20610;-85
2022/07/16 00:51:44;;;;;;;1.87;1.37;;;26.00;47.90;;;;;;5075119;28;20440;-85
2022/07/16 00:54:10;;;;;;;1.37;1.27;;;26.00;48.00;;;;;;5092500;28;20440;-85
2022/07/16 00:56:36;;;;;;;1.90;1.23;;;26.00;48.50;;;;;;5092284;28;20435;-85
2022/07/16 00:59:02;;;;;;;1.43;1.30;;;26.10;48.00;;;;;;5074058;28;20460;-85
2022/07/16 01:01:28;;;;;;;1.63;1.53;;;26.10;48.00;;;;;;5092092;28;20186;-85
2022/07/16 01:03:54;;;;;;;1.27;1.17;;;26.00;47.90;;;;;;5091953;28;20397;-85
2022/07/16 01:06:22;;;;;;;2.50;1.40;;;26.10;48.00;;;;;;5074122;28;20432;-85
2022/07/16 01:08:49;;;;;;;1.97;1.40;;;26.00;47.90;;;;;;5092130;28;20201;-85
2022/07/16 01:11:18;;;;;;;1.47;1.37;;;26.10;48.00;;;;;;5074308;28;20421;-86
2022/07/16 01:13:46;;;;;;;2.27;1.50;;;26.00;48.00;;;;;;5075020;28;20420;-86
2022/07/16 01:16:15;;;;;;;1.37;1.20;;;26.10;48.10;;;;;;5074512;28;20413;-86
2022/07/16 01:18:42;;;;;;;1.97;1.37;;;26.00;48.00;;;;;;5073871;28;20547;-85
2022/07/16 01:21:08;;;;;;;1.53;1.27;;;26.10;48.10;;;;;;5073845;28;20417;-85
2022/07/16 01:23:35;;;;;;;1.70;1.47;;;26.10;48.10;;;;;;5073853;28;20413;-85
2022/07/16 01:26:01;;;;;;;1.67;1.30;;;26.00;48.10;;;;;;5092059;28;20511;-85
2022/07/16 01:28:27;;;;;;;2.00;1.70;;;26.00;48.00;;;;;;5074459;28;20452;-85
2022/07/16 01:30:54;;;;;;;1.73;1.33;;;26.10;48.10;;;;;;5091976;28;20469;-85
2022/07/16 01:33:33;;;;;;;1.67;1.37;;;26.00;48.00;;;;;;5092249;28;20412;-85
2022/07/16 01:36:07;;;;;;;2.23;1.50;;;26.10;48.10;;;;;;5091804;28;20397;-85
2022/07/16 01:38:34;;;;;;;2.07;1.70;;;26.10;48.10;;;;;;5073814;28;20464;-85
2022/07/16 01:41:00;;;;;;;1.70;1.13;;;26.00;48.00;;;;;;5089729;28;20895;-85
2022/07/16 01:43:28;;;;;;;2.20;2.00;;;26.10;48.10;;;;;;5073499;28;20466;-85
2022/07/16 01:45:54;;;;;;;1.53;1.43;;;26.10;48.10;;;;;;5072161;28;20508;-85
2022/07/16 01:48:21;;;;;;;2.30;1.60;;;26.10;48.10;;;;;;5072441;28;20520;-85
2022/07/16 01:54:11;;;;;;;1.87;1.37;;;26.10;48.10;;;;;;5091343;28;20385;-85
2022/07/16 01:56:42;;;;;;;1.90;1.70;;;26.10;48.10;;;;;;5074612;28;20417;-84
2022/07/16 01:59:08;;;;;;;1.70;1.40;;;26.10;48.10;;;;;;5075916;28;20461;-84
2022/07/16 02:05:43;;;;;;;1.40;1.23;;;26.10;48.10;;;;;;5093579;28;20384;-84
2022/07/16 02:08:09;;;;;;;1.80;1.50;;;26.10;48.10;;;;;;5074505;28;20421;-84
2022/07/16 02:10:37;;;;;;;1.87;1.60;;;26.00;48.60;;;;;;5090902;28;20419;-83
2022/07/16 02:13:05;;;;;;;1.80;1.70;;;26.10;48.10;;;;;;5093296;28;20417;-83
2022/07/16 02:15:33;;;;;;;1.70;1.50;;;26.00;48.00;;;;;;5058267;28;20436;-84
2022/07/16 02:17:59;;;;;;;2.07;1.67;;;26.00;48.00;;;;;;5075228;28;20461;-84
2022/07/16 02:20:25;;;;;;;1.53;1.40;;;26.00;48.00;;;;;;5073328;28;20491;-83
2022/07/16 02:22:53;;;;;;;1.90;1.43;;;26.10;48.00;;;;;;5092937;28;20381;-84
2022/07/16 02:25:19;;;;;;;1.90;1.70;;;26.00;48.00;;;;;;5093794;28;20427;-84
2022/07/16 02:30:30;;;;;;;1.70;1.33;;;26.10;48.00;;;;;;5078809;28;20415;-84
2022/07/16 02:32:56;;;;;;;1.70;1.43;;;26.10;48.00;;;;;;5059287;28;20424;-84
2022/07/16 02:35:24;;;;;;;1.70;1.40;;;26.00;47.90;;;;;;5093883;28;20408;-84
2022/07/16 02:37:51;;;;;;;1.63;1.50;;;26.10;48.00;;;;;;5063458;28;20439;-84
2022/07/16 02:40:20;;;;;;;2.03;1.50;;;26.10;48.00;;;;;;5098191;28;20410;-84
2022/07/16 02:42:46;;;;;;;1.43;1.30;;;26.00;47.90;;;;;;5079926;28;20393;-84
2022/07/16 02:45:24;;;;;;;1.70;1.60;;;26.10;48.00;;;;;;5097810;28;20422;-84
2022/07/16 02:47:51;;;;;;;2.33;1.77;;;26.00;47.90;;;;;;5097584;28;20456;-84
2022/07/16 02:50:17;;;;;;;1.53;1.43;;;26.00;47.90;;;;;;5079536;28;20401;-84
2022/07/16 02:52:43;;;;;;;1.77;1.40;;;26.10;47.90;;;;;;5097875;28;20392;-84
2022/07/16 02:55:10;;;;;;;2.60;1.40;;;26.10;48.00;;;;;;5079125;28;20412;-84
2022/07/16 02:57:36;;;;;;;1.40;1.30;;;26.10;47.90;;;;;;5097955;28;20413;-84
2022/07/16 03:00:07;;;;;;;1.50;1.40;;;26.10;47.90;;;;;;5097065;28;20401;-84
2022/07/16 03:02:33;;;;;;;2.27;2.07;;;26.10;47.90;;;;;;5096881;28;20426;-84
2022/07/16 03:05:01;;;;;;;1.73;1.40;;;26.10;47.90;;;;;;5096075;28;20429;-84
2022/07/16 03:07:27;;;;;;;1.67;1.57;;;26.00;47.80;;;;;;5096626;28;20910;-84
2022/07/16 03:09:53;;;;;;;1.80;1.67;;;26.10;47.90;;;;;;5096287;28;20413;-84
2022/07/16 03:12:23;;;;;;;2.37;1.50;;;26.10;47.90;;;;;;5096143;28;20420;-84
2022/07/16 03:14:52;;;;;;;1.47;1.37;;;26.10;47.80;;;;;;5095998;28;20186;-84
2022/07/16 03:17:18;;;;;;;2.73;1.80;;;26.10;47.80;;;;;;5096669;28;20427;-84
2022/07/16 03:19:47;;;;;;;2.10;1.60;;;26.10;47.70;;;;;;5078947;28;20467;-84
2022/07/16 03:22:14;;;;;;;3.40;1.70;;;26.00;47.60;;;;;;5079391;28;20411;-84
2022/07/16 03:24:40;;;;;;;1.53;1.43;;;26.00;47.60;;;;;;5096795;28;20483;-84
2022/07/16 03:27:08;;;;;;;1.80;1.70;;;26.10;47.70;;;;;;5061858;28;20436;-84
2022/07/16 03:29:34;;;;;;;1.33;1.23;;;26.00;47.60;;;;;;5078269;28;20448;-85
2022/07/16 03:32:01;;;;;;;2.57;1.60;;;26.00;47.60;;;;;;5077753;28;20416;-84
2022/07/16 03:34:29;;;;;;;1.53;1.27;;;26.00;47.60;;;;;;5078318;28;20416;-84
2022/07/16 03:36:55;;;;;;;2.33;1.57;;;26.00;47.60;;;;;;5078669;28;20417;-84
2022/07/16 03:39:21;;;;;;;2.30;1.63;;;26.00;47.60;;;;;;5062058;28;20456;-84
2022/07/16 03:41:47;;;;;;;2.10;1.67;;;26.00;47.60;;;;;;5061175;28;20427;-84
2022/07/16 03:44:14;;;;;;;1.30;1.20;;;26.00;47.60;;;;;;5094892;28;20405;-84
2022/07/16 03:46:40;;;;;;;1.53;1.40;;;26.00;47.60;;;;;;5095437;28;20420;-84
2022/07/16 03:49:07;;;;;;;2.20;1.63;;;26.00;47.60;;;;;;5078161;28;20483;-84
2022/07/16 03:51:34;;;;;;;1.50;1.40;;;26.00;47.60;;;;;;5095525;28;20405;-84
2022/07/16 03:54:01;;;;;;;1.80;1.50;;;26.00;47.70;;;;;;5077519;28;20490;-84
2022/07/16 03:56:27;;;;;;;2.30;1.90;;;26.00;47.60;;;;;;5077742;28;20443;-84
2022/07/16 03:58:55;;;;;;;1.80;1.50;;;25.90;47.50;;;;;;5077410;28;20485;-85
2022/07/16 04:01:23;;;;;;;2.60;1.67;;;25.90;47.60;;;;;;5094399;28;20459;-84
2022/07/16 04:03:49;;;;;;;2.03;1.50;;;25.90;47.60;;;;;;5060298;28;20431;-84
2022/07/16 04:06:16;;;;;;;1.73;1.60;;;26.00;48.30;;;;;;5077078;28;20486;-84
2022/07/16 04:08:42;;;;;;;1.77;1.60;;;26.00;47.70;;;;;;5077413;28;20420;-84
2022/07/16 04:11:11;;;;;;;1.90;1.57;;;26.00;47.70;;;;;;5095119;28;20413;-84
2022/07/16 04:13:38;;;;;;;1.90;1.60;;;26.00;47.80;;;;;;5076879;28;20443;-84
2022/07/16 04:16:06;;;;;;;2.03;1.70;;;26.00;47.80;;;;;;5095012;28;20435;-84
2022/07/16 04:18:33;;;;;;;1.67;1.57;;;26.00;47.70;;;;;;5077621;28;20460;-84
2022/07/16 04:20:58;;;;;;;1.50;1.30;;;26.00;47.70;;;;;;5062129;28;20451;-84
2022/07/16 04:23:26;;;;;;;1.87;1.60;;;26.00;47.70;;;;;;5077877;28;20412;-84
2022/07/16 04:25:52;;;;;;;1.83;1.53;;;26.00;47.70;;;;;;5077789;28;20492;-84
2022/07/16 04:28:38;;;;;;;1.67;1.47;;;26.00;47.70;;;;;;5094569;28;20435;-84
2022/07/16 04:31:04;;;;;;;1.73;1.40;;;26.00;47.70;;;;;;5093232;28;20404;-84
2022/07/16 04:33:30;;;;;;;1.50;1.40;;;26.00;47.70;;;;;;5075340;28;20421;-84
2022/07/16 04:36:04;;;;;;;1.90;1.70;;;26.00;47.70;;;;;;5077156;28;20431;-84
2022/07/16 04:38:30;;;;;;;1.60;1.43;;;26.10;47.80;;;;;;5075437;28;20231;-84
2022/07/16 04:40:57;;;;;;;1.80;1.50;;;26.00;47.70;;;;;;5077225;28;20492;-84
2022/07/16 04:46:45;;;;;;;1.73;1.57;;;26.00;47.70;;;;;;5095442;28;20459;-83
2022/07/16 04:52:34;;;;;;;1.50;1.40;;;26.00;47.70;;;;;;5095812;28;20388;-84
2022/07/16 04:55:00;;;;;;;2.03;1.50;;;25.90;47.70;;;;;;5044700;28;20427;-84
2022/07/16 04:57:27;;;;;;;1.80;1.70;;;26.00;47.70;;;;;;5078029;28;20421;-84
2022/07/16 04:59:55;;;;;;;2.03;1.93;;;26.00;47.70;;;;;;5094400;28;20467;-84
2022/07/16 05:05:07;;;;;;;1.77;1.40;;;26.00;47.70;;;;;;5094959;28;20419;-84
2022/07/16 05:07:40;;;;;;;1.70;1.50;;;26.00;47.70;;;;;;5075835;28;20455;-84
2022/07/16 05:10:07;;;;;;;1.70;1.50;;;26.10;47.70;;;;;;5061011;28;20409;-84
2022/07/16 05:12:32;;;;;;;1.83;1.73;;;26.10;47.70;;;;;;5076530;28;20413;-84
2022/07/16 05:14:59;;;;;;;2.00;1.80;;;26.10;47.70;;;;;;5094180;28;20469;-84
2022/07/16 05:17:26;;;;;;;1.80;1.47;;;26.00;47.70;;;;;;5093283;28;20831;-85
2022/07/16 05:19:53;;;;;;;1.60;1.47;;;26.10;47.70;;;;;;5074936;28;20525;-84
2022/07/16 05:22:22;;;;;;;1.70;1.60;;;26.10;47.70;;;;;;5092702;28;20401;-84
2022/07/16 05:24:48;;;;;;;1.90;1.40;;;26.10;48.30;;;;;;5075927;28;20801;-84
2022/07/16 05:27:14;;;;;;;2.10;1.60;;;26.10;47.70;;;;;;5093710;28;20903;-84
2022/07/16 05:29:40;;;;;;;1.70;1.10;;;26.10;47.70;;;;;;5093556;28;20181;-84
2022/07/16 05:32:06;;;;;;;1.73;1.60;;;26.10;47.70;;;;;;5074952;28;20404;-84
2022/07/16 05:34:32;;;;;;;2.03;1.43;;;26.10;47.80;;;;;;5092890;28;20408;-84
2022/07/16 05:36:58;;;;;;;1.60;1.50;;;26.10;47.70;;;;;;5093305;28;20405;-84
2022/07/16 05:39:26;;;;;;;1.43;1.33;;;26.10;47.70;;;;;;5092615;28;20482;-84
2022/07/16 05:41:51;;;;;;;1.70;1.47;;;26.10;47.70;;;;;;5092672;28;20403;-84
2022/07/16 05:44:18;;;;;;;1.60;1.47;;;26.10;47.70;;;;;;5075535;28;20447;-83
2022/07/16 05:46:59;;;;;;;2.00;1.77;;;26.10;47.70;;;;;;5075549;28;20412;-83
2022/07/16 05:49:25;;;;;;;2.67;1.70;;;26.10;47.70;;;;;;5074480;28;20582;-83
2022/07/16 05:51:52;;;;;;;1.60;1.43;;;26.10;47.70;;;;;;5075989;28;20405;-85
2022/07/16 05:54:20;;;;;;;1.60;1.50;;;26.10;47.70;;;;;;5075791;28;20190;-84
2022/07/16 05:56:49;;;;;;;1.70;1.50;;;26.10;47.70;;;;;;5076835;28;20421;-84
2022/07/16 05:59:15;;;;;;;1.57;1.47;;;26.10;47.70;;;;;;5075348;28;20464;-84
2022/07/16 06:01:42;;;;;;;2.07;1.40;;;26.10;47.60;;;;;;5093758;28;20415;-84
2022/07/16 06:04:19;;;;;;;1.97;1.47;;;26.10;47.60;;;;;;5059120;28;20421;-83
2022/07/16 06:06:45;;;;;;;2.10;1.87;;;26.20;47.60;;;;;;5075357;28;20793;-82
2022/07/16 06:09:12;;;;;;;1.70;1.60;;;26.10;47.60;;;;;;5093709;28;20416;-83
2022/07/16 06:11:38;;;;;;;1.73;1.33;;;26.10;47.60;;;;;;5093892;28;20468;-83
2022/07/16 06:14:04;;;;;;;2.47;1.70;;;26.10;47.60;;;;;;5076168;28;20428;-84
2022/07/16 06:16:31;;;;;;;1.30;1.20;;;26.10;47.50;;;;;;5076064;28;20822;-84
2022/07/16 06:18:57;;;;;;;1.40;1.23;;;26.10;47.50;;;;;;5075409;28;20490;-83
2022/07/16 06:21:25;;;;;;;1.70;1.47;;;26.20;47.60;;;;;;5074846;28;20420;-83
2022/07/16 06:23:51;;;;;;;1.50;1.30;;;26.20;47.60;;;;;;5058860;28;20443;-83
2022/07/16 06:26:17;;;;;;;1.70;1.40;;;26.10;47.50;;;;;;5074599;28;20492;-83
2022/07/16 06:28:45;;;;;;;1.70;1.60;;;26.10;47.50;;;;;;5074790;28;20511;-83
2022/07/16 06:31:12;;;;;;;2.27;1.40;;;26.20;47.60;;;;;;5058706;28;20435;-83
2022/07/16 06:33:38;;;;;;;1.50;1.33;;;26.20;47.70;;;;;;5073999;28;20421;-84
2022/07/16 06:36:05;;;;;;;1.40;1.20;;;26.10;47.60;;;;;;5058629;28;20467;-83
2022/07/16 06:38:32;;;;;;;2.07;1.30;;;26.20;47.70;;;;;;5074159;28;21001;-83
2022/07/16 06:40:59;;;;;;;1.70;1.60;;;26.20;47.70;;;;;;5074448;28;20412;-84
2022/07/16 06:43:25;;;;;;;1.40;1.30;;;26.20;47.70;;;;;;5092929;28;20409;-84
2022/07/16 06:45:51;;;;;;;1.50;1.40;;;26.20;47.70;;;;;;5092147;28;20447;-84
2022/07/16 06:48:18;;;;;;;1.87;1.63;;;26.20;47.70;;;;;;5074987;28;20429;-84
2022/07/16 06:50:45;;;;;;;1.83;1.73;;;26.20;47.70;;;;;;5092200;28;20186;-84
2022/07/16 06:53:11;;;;;;;2.00;1.70;;;26.20;47.70;;;;;;5092123;28;20412;-84
2022/07/16 06:55:38;;;;;;;1.40;1.30;;;26.20;47.70;;;;;;5073812;28;20424;-84
2022/07/16 06:58:05;;;;;;;1.67;1.57;;;26.10;47.60;;;;;;5090649;28;20456;-84
2022/07/16 07:00:34;;;;;;;1.40;1.30;;;26.10;47.60;;;;;;5075093;28;20478;-84
2022/07/16 07:03:00;;;;;;;2.37;1.30;;;26.20;47.60;;;;;;5091256;28;20408;-84
2022/07/16 07:05:27;;;;;;;2.63;1.80;;;26.20;47.60;;;;;;5058213;28;20417;-84
2022/07/16 07:07:54;;;;;;;1.63;1.53;;;26.20;47.70;;;;;;5073671;28;20432;-83
2022/07/16 07:10:22;;;;;;;1.47;1.37;;;26.20;47.60;;;;;;5073768;28;20450;-83
2022/07/16 07:12:49;;;;;;;1.20;1.10;;;26.20;47.60;;;;;;5075979;28;20416;-83
2022/07/16 07:15:31;;;;;;;1.30;1.20;;;26.10;47.60;;;;;;5076388;28;20413;-84
2022/07/16 07:17:57;;;;;;;1.70;1.40;;;26.20;47.60;;;;;;5059357;28;20421;-84
2022/07/16 07:20:23;;;;;;;1.67;1.57;;;26.20;47.70;;;;;;5076121;28;20469;-84
2022/07/16 07:22:49;;;;;;;2.00;1.33;;;26.10;47.60;;;;;;5060888;28;20250;-84
2022/07/16 07:25:15;;;;;;;1.63;1.53;;;26.20;47.70;;;;;;5096807;28;20381;-84
2022/07/16 07:27:50;;;;;;;1.50;1.20;;;26.20;47.70;;;;;;5079257;28;20518;-83
2022/07/16 07:30:17;;;;;;;1.73;1.30;;;26.10;47.60;;;;;;5096457;28;20201;-84
2022/07/16 07:32:42;;;;;;;1.60;1.30;;;26.20;47.70;;;;;;5079094;28;20416;-84
2022/07/16 07:35:10;;;;;;;1.37;1.07;;;26.20;47.70;;;;;;5096371;28;20443;-84
2022/07/16 07:37:36;;;;;;;1.87;1.40;;;26.10;47.60;;;;;;5061453;28;20189;-84
2022/07/16 07:40:04;;;;;;;1.40;1.30;;;26.20;47.70;;;;;;5095550;28;20484;-84
2022/07/16 07:42:32;;;;;;;1.40;1.20;;;26.20;47.70;;;;;;5078661;28;20424;-84
2022/07/16 07:44:58;;;;;;;1.70;1.33;;;26.20;47.70;;;;;;5078595;28;20507;-84
2022/07/16 07:47:27;;;;;;;1.60;1.50;;;26.20;47.70;;;;;;5096388;28;20385;-84
2022/07/16 07:49:54;;;;;;;1.53;1.30;;;26.20;47.70;;;;;;5076975;28;20434;-84
2022/07/16 07:52:22;;;;;;;1.40;1.30;;;26.20;47.70;;;;;;5095464;28;20438;-84
2022/07/16 07:54:51;;;;;;;1.87;1.60;;;26.20;47.70;;;;;;5078845;28;20413;-84
2022/07/16 07:57:19;;;;;;;2.17;1.30;;;26.20;47.70;;;;;;5095784;28;20436;-84
2022/07/16 07:59:46;;;;;;;3.07;1.30;;;26.20;47.70;;;;;;5078185;28;20517;-82
2022/07/16 08:02:12;;;;;;;1.60;1.27;;;26.20;47.70;;;;;;5062694;28;20444;-82
2022/07/16 08:04:42;;;;;;;1.50;1.30;;;26.20;47.70;;;;;;5078215;28;20433;-83
2022/07/16 08:07:09;;;;;;;1.30;1.20;;;26.20;47.60;;;;;;5077737;28;20432;-84
2022/07/16 08:09:35;;;;;;;1.57;1.40;;;26.20;47.70;;;;;;5094966;28;20405;-85
2022/07/16 08:12:01;;;;;;;1.73;1.40;;;26.20;47.60;;;;;;5077788;28;20423;-84
2022/07/16 08:14:36;;;;;;;2.13;1.57;;;26.20;47.60;;;;;;5095195;28;20411;-84
2022/07/16 08:17:03;;;;;;;1.63;1.37;;;26.20;47.70;;;;;;5095485;28;20426;-84
2022/07/16 08:19:31;;;;;;;1.40;1.30;;;26.20;47.60;;;;;;5095746;28;20476;-84
2022/07/16 08:21:57;;;;;;;1.40;1.30;;;26.20;47.70;;;;;;5095478;28;20431;-84
2022/07/16 08:27:09;;;;;;;1.90;1.43;;;26.20;47.70;;;;;;5095165;28;20169;-84
2022/07/16 08:29:35;;;;;;;1.53;1.43;;;26.20;47.70;;;;;;5078694;28;20455;-84
2022/07/16 08:32:04;;;;;;;1.57;1.47;;;26.20;47.70;;;;;;5077708;28;20411;-83
2022/07/16 08:34:31;;;;;;;1.50;1.30;;;26.20;47.70;;;;;;5094830;28;20404;-84
2022/07/16 08:36:57;;;;;;;1.50;1.40;;;26.20;47.70;;;;;;5078238;28;20480;-84
2022/07/16 08:42:46;;;;;;;1.60;1.40;;;26.20;47.70;;;;;;5094777;28;20177;-84
2022/07/16 08:45:13;;;;;;;1.93;1.20;;;26.20;47.70;;;;;;5093891;28;20408;-84
2022/07/16 08:47:41;;;;;;;2.23;1.20;;;26.20;47.70;;;;;;5077035;28;20477;-84
2022/07/16 08:50:10;;;;;;;1.60;1.50;;;26.20;47.70;;;;;;5076239;28;20507;-84
2022/07/16 08:52:45;;;;;;;1.57;1.40;;;26.20;47.70;;;;;;5094560;28;20416;-84
2022/07/16 08:55:11;;;;;;;1.60;1.40;;;26.20;47.70;;;;;;5076902;28;20469;-84
2022/07/16 08:57:39;;;;;;;1.63;1.43;;;26.20;47.70;;;;;;5076783;28;20972;-84
2022/07/16 09:00:10;;;;;;;1.43;1.33;;;26.20;47.70;;;;;;5076194;28;20460;-84
2022/07/16 09:02:37;;;;;;;2.30;1.47;;;26.20;47.70;;;;;;5093839;28;20394;-84
2022/07/16 09:05:07;;;;;;;1.63;1.17;;;26.20;47.70;;;;;;5094401;28;20408;-84
2022/07/16 09:07:33;;;;;;;1.50;1.33;;;26.20;47.70;;;;;;5094253;28;20413;-84
2022/07/16 09:09:59;;;;;;;1.57;1.47;;;26.20;47.70;;;;;;5076352;28;20421;-84
2022/07/16 09:12:42;;;;;;;1.60;1.27;;;26.20;47.70;;;;;;5093946;28;20476;-84
2022/07/16 09:15:29;;;;;;;1.60;1.27;;;26.20;47.60;;;;;;5076209;28;20178;-84
2022/07/16 09:18:36;;;;;;;1.60;1.30;;;26.20;47.60;;;;;;5076401;28;20490;-84
2022/07/16 09:21:02;;;;;;;2.80;1.50;;;26.20;47.70;;;;;;4993577;28;20409;-84
2022/07/16 09:23:38;;;;;;;1.33;1.10;;;26.20;47.70;;;;;;4991573;28;20415;-84
2022/07/16 09:26:09;;;;;;;1.40;1.30;;;26.20;47.70;;;;;;4977520;28;20545;-84
2022/07/16 09:28:47;;;;;;;1.33;1.23;;;26.20;47.70;;;;;;4975379;28;20464;-84
2022/07/16 09:31:39;;;;;;;1.97;1.70;;;26.20;47.70;;;;;;4991774;28;20424;-84
2022/07/16 09:34:15;;;;;;;1.53;1.20;;;26.20;47.70;;;;;;4976453;28;20954;-84
2022/07/16 09:37:01;;;;;;;1.33;1.20;;;26.20;47.70;;;;;;4991074;28;20457;-84
2022/07/16 09:39:31;;;;;;;1.40;1.30;;;26.20;47.70;;;;;;4991826;28;20457;-84
2022/07/16 09:41:58;;;;;;;1.40;1.20;;;26.20;47.70;;;;;;4977464;28;20424;-83
2022/07/16 09:44:26;;;;;;;1.43;1.20;;;26.20;47.70;;;;;;4993119;28;20442;-83
2022/07/16 09:47:00;;;;;;;1.50;1.37;;;26.20;47.70;;;;;;4977265;28;20428;-84
2022/07/16 09:49:28;;;;;;;1.60;1.47;;;26.20;47.70;;;;;;4993975;28;20451;-84
2022/07/16 09:51:54;;;;;;;1.80;1.20;;;26.20;47.70;;;;;;4977399;28;20421;-83
2022/07/16 09:54:29;;;;;;;1.50;1.20;;;26.20;47.70;;;;;;4978241;28;20492;-84
2022/07/16 09:57:11;;;;;;;1.20;1.10;;;26.20;47.70;;;;;;5008749;28;20403;-84
2022/07/16 09:59:44;;;;;;;1.60;1.30;;;26.20;47.70;;;;;;5093424;28;20436;-84
2022/07/16 10:02:12;;;;;;;1.97;1.27;;;26.20;47.70;;;;;;5075843;28;20409;-84
2022/07/16 10:04:38;;;;;;;1.40;1.23;;;26.20;47.70;;;;;;5093376;28;20440;-84
2022/07/16 10:07:05;;;;;;;1.90;1.50;;;26.20;47.70;;;;;;5059661;28;20428;-84
2022/07/16 10:09:33;;;;;;;1.33;1.23;;;26.20;48.20;;;;;;5075697;28;20424;-84
2022/07/16 10:12:16;;;;;;;1.57;1.40;;;26.20;47.70;;;;;;5076160;28;20417;-84
2022/07/16 10:14:50;;;;;;;1.70;1.30;;;26.20;47.70;;;;;;5074833;28;20416;-84
2022/07/16 10:17:21;;;;;;;1.70;1.20;;;26.20;47.70;;;;;;5093560;28;20393;-84
2022/07/16 10:22:51;;;;;;;2.37;1.33;;;26.20;47.70;;;;;;5092994;28;20392;-84
2022/07/16 10:25:27;;;;;;;1.43;1.10;;;26.20;47.70;;;;;;5093183;28;20412;-84
2022/07/16 10:27:54;;;;;;;1.40;1.30;;;26.20;47.70;;;;;;5093242;28;20415;-84
2022/07/16 10:30:44;;;;;;;1.50;1.13;;;26.20;47.70;;;;;;5075341;28;20443;-84
2022/07/16 10:33:13;;;;;;;1.43;1.33;;;26.20;47.70;;;;;;4992266;28;20449;-84
2022/07/16 10:35:50;;;;;;;1.30;1.03;;;26.20;47.70;;;;;;4976382;28;20520;-84
2022/07/16 10:38:24;;;;;;;1.30;1.00;;;26.20;47.70;;;;;;4976289;28;20464;-84
2022/07/16 10:41:10;;;;;;;1.20;1.10;;;26.20;47.70;;;;;;4975369;28;20439;-84
2022/07/16 10:43:36;;;;;;;1.27;1.10;;;26.20;47.70;;;;;;4976034;28;20428;-84
2022/07/16 10:46:04;;;;;;;1.60;1.33;;;26.20;47.70;;;;;;4976240;28;20614;-84
2022/07/16 10:48:52;;;;;;;1.30;1.20;;;26.20;47.70;;;;;;4976216;28;20459;-84
2022/07/16 10:51:20;;;;;;;1.47;1.30;;;26.20;47.70;;;;;;4975591;28;20436;-84
2022/07/16 10:53:57;;;;;;;2.00;1.10;;;26.20;47.70;;;;;;4991876;28;20414;-84
2022/07/16 10:56:54;;;;;;;1.80;1.30;;;26.20;47.70;;;;;;4991539;28;20424;-84
2022/07/16 10:59:23;;;;;;;1.50;1.37;;;26.20;47.70;;;;;;4983842;28;20461;-84
2022/07/16 11:01:54;;;;;;;1.57;1.10;;;26.20;47.70;;;;;;4978920;28;20413;-84
2022/07/16 11:04:43;;;;;;;1.30;1.20;;;26.20;47.70;;;;;;4979425;28;20489;-84
2022/07/16 11:07:12;;;;;;;3.30;1.20;;;26.20;47.70;;;;;;4995066;28;20385;-84
2022/07/16 11:09:43;;;;;;;1.43;1.33;;;26.20;47.70;;;;;;5010759;28;20396;-84
2022/07/16 11:12:29;;;;;;;1.50;1.23;;;26.20;47.70;;;;;;5096208;28;20397;-84
2022/07/16 11:14:56;;;;;;;1.87;1.40;;;26.20;47.70;;;;;;5077493;28;20404;-84
2022/07/16 11:17:29;;;;;;;2.10;1.37;;;26.20;47.70;;;;;;5060958;28;20448;-84
2022/07/16 11:20:00;;;;;;;1.50;1.13;;;26.20;47.80;;;;;;5095496;28;20444;-84
2022/07/16 11:22:28;;;;;;;1.80;1.20;;;26.20;47.70;;;;;;5078253;28;20412;-84
2022/07/16 11:25:05;;;;;;;2.10;1.23;;;26.30;47.80;;;;;;5077890;28;20413;-84
2022/07/16 11:27:36;;;;;;;1.30;1.20;;;26.30;47.80;;;;;;5095933;28;20407;-84
2022/07/16 11:30:08;;;;;;;1.50;1.20;;;26.30;47.70;;;;;;5078248;28;20444;-84
2022/07/16 11:32:45;;;;;;;1.90;1.20;;;26.20;47.70;;;;;;5095583;28;20850;-84
2022/07/16 11:35:12;;;;;;;1.33;1.10;;;26.30;47.70;;;;;;5078023;28;20552;-84
2022/07/16 11:37:58;;;;;;;1.47;1.30;;;26.30;47.70;;;;;;5077898;28;20424;-84
2022/07/16 11:40:41;;;;;;;1.40;1.17;;;26.30;47.70;;;;;;5095565;28;20443;-84
2022/07/16 11:43:07;;;;;;;1.30;1.10;;;26.30;47.70;;;;;;5095238;28;20385;-84
2022/07/16 11:45:41;;;;;;;1.27;1.07;;;26.30;47.70;;;;;;5075147;28;20795;-84
2022/07/16 11:48:19;;;;;;;1.43;1.33;;;26.20;47.70;;;;;;5076312;28;20408;-84
2022/07/16 11:50:49;;;;;;;1.33;1.23;;;26.20;47.70;;;;;;5093598;28;20453;-84
2022/07/16 11:53:30;;;;;;;1.90;1.17;;;26.20;47.70;;;;;;5094882;28;20459;-84
2022/07/16 11:55:56;;;;;;;1.20;1.00;;;26.30;47.70;;;;;;5077721;28;20397;-83
2022/07/16 11:58:22;;;;;;;2.10;1.43;;;26.20;47.70;;;;;;5076994;28;20483;-84
2022/07/16 12:00:48;;;;;;;1.77;1.50;;;26.20;47.70;;;;;;5078951;28;20236;-83
2022/07/16 12:03:16;;;;;;;2.13;1.50;;;26.20;47.70;;;;;;5078330;28;20435;-84
2022/07/16 12:05:46;;;;;;;1.20;1.03;;;26.30;47.80;;;;;;5096295;28;20405;-84
2022/07/16 12:08:12;;;;;;;1.57;1.20;;;26.30;47.70;;;;;;5061241;28;20425;-84
2022/07/16 12:10:38;;;;;;;1.50;1.40;;;26.30;47.70;;;;;;5095786;28;20463;-84
2022/07/16 12:13:09;;;;;;;1.53;1.30;;;26.30;47.80;;;;;;5095436;28;20405;-85
2022/07/16 12:15:52;;;;;;;1.30;1.20;;;26.30;47.70;;;;;;5095658;28;20155;-84
2022/07/16 12:18:20;;;;;;;1.03;0.90;;;26.30;47.70;;;;;;5096141;28;20480;-84
2022/07/16 12:20:46;;;;;;;1.30;1.20;;;26.30;47.70;;;;;;5077710;28;20409;-84
2022/07/16 12:23:13;;;;;;;1.20;1.10;;;26.20;47.70;;;;;;5077586;28;20420;-84
2022/07/16 12:25:45;;;;;;;1.23;1.13;;;26.30;47.70;;;;;;5077960;28;20415;-84
2022/07/16 12:28:37;;;;;;;1.50;1.40;;;26.30;47.70;;;;;;5078334;28;20410;-84
2022/07/16 12:31:11;;;;;;;1.20;1.10;;;26.30;47.70;;;;;;4979327;28;20432;-84
2022/07/16 12:33:38;;;;;;;1.43;1.20;;;26.30;47.80;;;;;;4994580;28;20420;-84
2022/07/16 12:36:09;;;;;;;1.80;1.30;;;26.30;47.70;;;;;;4962888;28;20449;-84
2022/07/16 12:39:02;;;;;;;2.53;1.27;;;26.30;47.70;;;;;;4977893;28;20449;-84
2022/07/16 12:41:42;;;;;;;1.50;1.37;;;26.30;47.70;;;;;;4977766;28;20422;-83
2022/07/16 12:44:14;;;;;;;2.00;1.20;;;26.30;47.70;;;;;;4993331;28;20417;-83
2022/07/16 12:46:44;;;;;;;1.50;1.27;;;26.30;47.70;;;;;;4963011;28;20413;-84
2022/07/16 12:49:16;;;;;;;1.57;1.27;;;26.30;47.70;;;;;;4978584;28;20409;-84
2022/07/16 12:51:49;;;;;;;1.83;1.40;;;26.30;47.70;;;;;;4995427;28;20465;-84
2022/07/16 12:54:19;;;;;;;1.30;1.20;;;26.30;47.70;;;;;;4978857;28;20484;-84
2022/07/16 12:59:33;;;;;;;1.53;1.40;;;26.30;47.70;;;;;;4994870;28;20528;-85
2022/07/16 13:02:01;;;;;;;1.50;1.40;;;26.30;47.80;;;;;;4994298;28;20448;-84
2022/07/16 13:04:28;;;;;;;1.40;1.20;;;26.30;47.70;;;;;;4978210;28;20484;-84
2022/07/16 13:06:54;;;;;;;1.97;1.17;;;26.20;47.70;;;;;;5008508;28;20435;-84
2022/07/16 13:09:23;;;;;;;1.57;1.17;;;26.30;47.70;;;;;;5094214;28;20389;-84
2022/07/16 13:12:06;;;;;;;1.30;1.13;;;26.30;47.70;;;;;;5079041;28;20417;-83
2022/07/16 13:14:33;;;;;;;1.37;1.27;;;26.30;47.70;;;;;;5094293;28;20413;-83
2022/07/16 13:16:58;;;;;;;1.47;1.20;;;26.30;47.70;;;;;;5060548;28;20412;-82
2022/07/16 13:19:28;;;;;;;1.53;1.20;;;26.30;47.80;;;;;;5092879;28;20463;-83
2022/07/16 13:21:54;;;;;;;1.40;1.10;;;26.30;47.70;;;;;;5076239;28;20185;-82
2022/07/16 13:24:24;;;;;;;1.20;1.10;;;26.30;47.70;;;;;;5077682;28;20424;-83
2022/07/16 13:26:50;;;;;;;1.13;1.00;;;26.30;48.30;;;;;;5076930;28;20416;-83
2022/07/16 13:29:18;;;;;;;1.37;1.20;;;26.20;47.70;;;;;;5094745;28;20420;-83
2022/07/16 13:31:43;;;;;;;1.80;1.40;;;26.30;47.80;;;;;;5077172;28;20455;-83
2022/07/16 13:34:11;;;;;;;1.50;1.07;;;26.30;47.80;;;;;;5076934;28;20416;-83
2022/07/16 13:36:39;;;;;;;1.40;1.10;;;26.30;47.80;;;;;;5075899;28;20173;-83